Time;durP1;ratioP1;P1;durP2;ratioP2;P2;SDS_P1;SDS_P2;PMS_P1;PMS_P2;Temp;Humidity;BMP_temperature;BMP_pressure;BME280_temperature;BME280_humidity;BME280_pressure;Samples;Min_cycle;Max_cycle;Signal;HPM_P1;HPM_P2
2022/02/21 00:00:10;;;;;;;12.85;4.42;;;;;;;3.65;66.77;99133.83;1633493;87;21057;-82
2022/02/21 00:02:43;;;;;;;11.43;4.67;;;;;;;3.60;68.46;99129.94;1650117;86;21020;-81
2022/02/21 00:05:14;;;;;;;12.65;5.10;;;;;;;3.57;66.35;99128.23;1678415;85;21021;-81
2022/02/21 00:07:43;;;;;;;11.83;4.40;;;;;;;3.54;66.98;99126.06;1661954;85;21140;-81
2022/02/21 00:10:11;;;;;;;15.88;5.15;;;;;;;3.49;68.60;99125.20;1671066;85;21049;-81
2022/02/21 00:12:39;;;;;;;9.05;3.95;;;;;;;3.44;68.84;99122.59;1660914;86;21215;-82
2022/02/21 00:15:07;;;;;;;11.12;4.70;;;;;;;3.42;68.06;99121.73;1679864;85;21769;-83
2022/02/21 00:17:34;;;;;;;14.25;4.70;;;;;;;3.39;69.46;99120.02;1676146;85;21060;-82
2022/02/21 00:20:01;;;;;;;15.78;4.90;;;;;;;3.40;69.34;99120.87;1658801;85;20989;-82
2022/02/21 00:22:28;;;;;;;15.63;4.67;;;;;;;3.39;68.45;99129.02;1658771;85;21052;-81
2022/02/21 00:24:54;;;;;;;9.55;5.10;;;;;;;3.37;68.07;99132.44;1658744;85;21003;-81
2022/02/21 00:27:21;;;;;;;12.63;4.62;;;;;;;3.35;68.62;99128.56;1682344;85;21301;-81
2022/02/21 00:29:49;;;;;;;10.15;4.90;;;;;;;3.33;68.55;99130.27;1682829;85;21464;-82
2022/02/21 00:32:15;;;;;;;10.78;4.42;;;;;;;3.28;69.24;99128.53;1661043;85;21081;-81
2022/02/21 00:34:42;;;;;;;11.53;4.87;;;;;;;3.25;68.31;99121.67;1659391;87;21012;-80
2022/02/21 00:37:09;;;;;;;8.75;4.78;;;;;;;3.22;68.63;99124.64;1659278;87;21425;-82
2022/02/21 00:39:35;;;;;;;14.55;5.62;;;;;;;3.18;67.72;99119.51;1658139;87;21108;-81
2022/02/21 00:42:04;;;;;;;11.18;4.75;;;;;;;3.14;69.03;99113.05;1659186;85;21056;-81
2022/02/21 00:44:31;;;;;;;11.12;5.10;;;;;;;3.12;68.84;99114.74;1678935;85;21071;-82
2022/02/21 00:47:00;;;;;;;12.35;4.90;;;;;;;3.08;68.05;99105.30;1659524;85;21051;-83
2022/02/21 00:49:26;;;;;;;15.70;4.50;;;;;;;3.05;68.83;99110.45;1658421;85;21073;-82
2022/02/21 00:51:53;;;;;;;9.38;4.20;;;;;;;2.99;68.21;99099.27;1659481;85;21063;-82
2022/02/21 00:54:20;;;;;;;8.53;4.22;;;;;;;2.98;68.46;99104.39;1659555;87;21036;-83
2022/02/21 00:56:46;;;;;;;9.68;4.35;;;;;;;2.96;68.06;99106.09;1678798;85;21053;-82
2022/02/21 00:59:12;;;;;;;9.68;4.35;;;;;;;2.94;67.13;99113.78;1657978;87;21098;-81
2022/02/21 01:01:39;;;;;;;13.50;4.50;;;;;;;2.93;67.69;99106.09;1668180;85;21028;-82
2022/02/21 01:04:06;;;;;;;13.38;4.95;;;;;;;2.93;68.77;99100.53;1672291;85;21033;-82
2022/02/21 01:06:32;;;;;;;13.48;4.95;;;;;;;2.95;69.36;99101.39;1657544;85;21072;-81
2022/02/21 01:08:59;;;;;;;11.80;4.83;;;;;;;2.91;68.21;99097.09;1658915;85;21130;-82
2022/02/21 01:11:30;;;;;;;16.73;5.83;;;;;;;2.88;67.99;99096.21;1659088;85;21040;-83
2022/02/21 01:13:53;;;;;;;14.03;5.67;;;;;;;2.84;68.52;99087.63;1658473;87;21115;-82
2022/02/21 01:16:20;;;;;;;11.83;5.67;;;;;;;2.82;68.51;99089.75;1658985;87;21028;-81
2022/02/21 01:18:46;;;;;;;15.90;5.60;;;;;;;2.82;68.89;99084.19;1659482;85;21312;-82
2022/02/21 01:21:12;;;;;;;12.10;5.45;;;;;;;2.78;69.39;99094.01;1659600;85;20985;-83
2022/02/21 01:23:40;;;;;;;10.58;5.08;;;;;;;2.74;69.84;99083.28;1659843;85;21034;-82
2022/02/21 01:26:07;;;;;;;12.85;5.15;;;;;;;2.70;69.71;99070.85;1659911;87;20999;-82
2022/02/21 01:28:33;;;;;;;12.50;5.58;;;;;;;2.68;69.55;99061.43;1659555;85;20952;-82
2022/02/21 01:31:00;;;;;;;12.65;4.92;;;;;;;2.65;70.44;99062.72;1672526;85;20983;-83
2022/02/21 01:33:28;;;;;;;11.22;5.70;;;;;;;2.60;70.21;99065.23;1669945;85;21051;-81
2022/02/21 01:35:56;;;;;;;15.05;5.50;;;;;;;2.56;69.62;99066.06;1659354;87;21043;-81
2022/02/21 01:38:23;;;;;;;10.98;5.50;;;;;;;2.51;70.65;99067.33;1658305;87;21084;-81
2022/02/21 01:40:50;;;;;;;11.05;5.25;;;;;;;2.47;69.20;99052.75;1657521;85;21076;-81
2022/02/21 01:43:19;;;;;;;13.13;5.62;;;;;;;2.40;67.77;99053.55;1658582;85;21111;-82
2022/02/21 01:45:45;;;;;;;11.70;4.97;;;;;;;2.33;68.79;99046.67;1661715;85;21035;-81
2022/02/21 01:48:12;;;;;;;11.88;4.67;;;;;;;2.30;68.98;99040.22;1658800;85;21068;-81
2022/02/21 01:50:39;;;;;;;12.45;6.22;;;;;;;2.26;69.61;99041.91;1658728;87;21072;-82
2022/02/21 01:53:05;;;;;;;12.47;5.25;;;;;;;2.23;70.37;99041.90;1677968;85;21511;-82
2022/02/21 01:55:32;;;;;;;11.78;5.53;;;;;;;2.16;71.58;99038.41;1658684;85;21032;-82
2022/02/21 01:57:58;;;;;;;12.70;5.58;;;;;;;2.14;72.65;99025.99;1658350;85;21013;-82
2022/02/21 02:00:25;;;;;;;17.92;6.65;;;;;;;2.14;72.60;99027.27;1656756;85;21068;-80
2022/02/21 02:02:52;;;;;;;16.95;6.83;;;;;;;2.13;72.85;99015.31;1675993;85;21023;-80
2022/02/21 02:05:19;;;;;;;17.23;7.78;;;;;;;2.12;72.52;99007.17;1684446;85;21486;-80
2022/02/21 02:07:46;;;;;;;20.72;7.28;;;;;;;2.11;74.75;98994.33;1669426;85;21504;-81
2022/02/21 02:10:13;;;;;;;14.53;6.12;;;;;;;2.09;71.98;98985.77;1658642;85;21020;-82
2022/02/21 02:12:41;;;;;;;15.60;5.90;;;;;;;2.04;74.20;98986.17;1672770;85;20984;-82
2022/02/21 02:15:13;;;;;;;13.62;5.20;;;;;;;1.98;73.25;98988.27;1659989;85;22321;-80
2022/02/21 02:17:42;;;;;;;15.68;5.50;;;;;;;1.95;73.31;98988.22;1656977;85;21081;-80
2022/02/21 02:20:10;;;;;;;11.45;4.95;;;;;;;1.92;73.06;98985.23;1658296;85;21093;-82
2022/02/21 02:22:40;;;;;;;10.48;5.15;;;;;;;1.90;73.68;98970.69;1656909;85;21092;-79
2022/02/21 02:25:07;;;;;;;14.40;5.35;;;;;;;1.88;73.41;98969.39;1676395;85;20944;-79
2022/02/21 02:27:34;;;;;;;14.15;6.50;;;;;;;1.89;74.11;98965.11;1656916;85;21076;-80
2022/02/21 02:30:03;;;;;;;15.08;6.28;;;;;;;1.86;74.53;98967.23;1656868;85;21069;-80
2022/02/21 02:32:30;;;;;;;14.10;6.28;;;;;;;1.85;73.91;98969.78;1656898;85;21024;-80
2022/02/21 02:34:57;;;;;;;12.80;6.03;;;;;;;1.82;74.03;98966.78;1656698;87;21083;-79
2022/02/21 02:37:25;;;;;;;12.98;6.67;;;;;;;1.77;73.19;98966.75;1658938;85;21048;-82
2022/02/21 02:39:52;;;;;;;13.28;5.97;;;;;;;1.71;74.95;98971.83;1657202;85;21076;-80
2022/02/21 02:42:20;;;;;;;15.00;6.03;;;;;;;1.66;75.69;98964.51;1658619;87;21059;-82
2022/02/21 02:44:46;;;;;;;13.65;6.03;;;;;;;1.63;74.17;98967.46;1658605;85;21264;-81
2022/02/21 02:47:14;;;;;;;14.68;5.55;;;;;;;1.59;74.87;98970.41;1658887;85;21040;-83
2022/02/21 02:49:42;;;;;;;12.55;5.80;;;;;;;1.56;73.66;98967.84;1658694;85;20997;-81
2022/02/21 02:52:09;;;;;;;14.63;5.85;;;;;;;1.55;73.94;98960.98;1656801;87;21020;-80
2022/02/21 02:54:36;;;;;;;15.75;6.17;;;;;;;1.55;75.05;98953.30;1657360;87;21085;-82
2022/02/21 02:57:03;;;;;;;19.60;6.05;;;;;;;1.56;74.01;98954.59;1658625;85;21036;-82
2022/02/21 02:59:30;;;;;;;14.13;6.45;;;;;;;1.58;74.48;98946.50;1678211;85;20992;-82
2022/02/21 03:01:56;;;;;;;19.75;9.13;;;;;;;1.59;74.31;98938.38;1658168;87;21085;-81
2022/02/21 03:04:23;;;;;;;14.60;7.28;;;;;;;1.61;73.39;98941.81;1658028;87;20997;-81
2022/02/21 03:06:49;;;;;;;20.72;10.30;;;;;;;1.62;73.39;98939.70;1658701;85;21027;-82
2022/02/21 03:09:17;;;;;;;17.02;8.90;;;;;;;1.59;73.02;98938.38;1658893;87;21055;-83
2022/02/21 03:11:43;;;;;;;16.52;7.28;;;;;;;1.54;73.55;98934.51;1660849;85;21052;-80
2022/02/21 03:14:10;;;;;;;12.20;6.05;;;;;;;1.52;72.81;98923.82;1669604;85;21041;-80
2022/02/21 03:16:37;;;;;;;9.75;5.65;;;;;;;1.48;74.32;98926.77;1661383;86;21088;-82
2022/02/21 03:19:03;;;;;;;17.73;7.10;;;;;;;1.47;72.91;98921.63;1650636;87;21408;-82
2022/02/21 03:21:30;;;;;;;15.88;5.97;;;;;;;1.44;72.56;98918.63;1651748;86;21044;-81
2022/02/21 03:23:57;;;;;;;14.30;6.25;;;;;;;1.44;73.38;98904.97;1651652;86;21089;-81
2022/02/21 03:26:23;;;;;;;14.98;8.03;;;;;;;1.41;73.48;98904.50;1651272;86;21548;-81
2022/02/21 03:28:49;;;;;;;14.75;6.80;;;;;;;1.41;74.57;98906.20;1651252;86;21032;-81
2022/02/21 03:31:16;;;;;;;11.75;5.60;;;;;;;1.39;74.30;98905.79;1651078;86;21047;-82
2022/02/21 03:33:43;;;;;;;18.92;7.35;;;;;;;1.36;73.79;98899.34;1650995;86;20981;-81
2022/02/21 03:36:10;;;;;;;19.15;6.92;;;;;;;1.33;74.16;98896.77;1650896;86;21090;-81
2022/02/21 03:38:37;;;;;;;33.33;11.25;;;;;;;1.31;71.95;98889.50;1663829;85;21116;-80
2022/02/21 03:41:04;;;;;;;35.70;12.40;;;;;;;1.25;73.60;98877.05;1630614;87;21045;-80
2022/02/21 03:43:31;;;;;;;50.50;13.40;;;;;;;1.19;73.72;98876.56;1653520;86;21069;-79
2022/02/21 03:45:57;;;;;;;43.13;13.72;;;;;;;1.17;74.20;98874.01;1676548;85;21031;-81
2022/02/21 03:48:24;;;;;;;36.83;11.70;;;;;;;1.13;74.47;98877.36;1650426;86;21017;-81
2022/02/21 03:50:51;;;;;;;26.20;10.15;;;;;;;1.09;74.11;98873.05;1650656;86;21105;-81
2022/02/21 03:53:17;;;;;;;22.35;8.75;;;;;;;1.08;74.42;98870.50;1665191;85;21100;-81
2022/02/21 03:55:45;;;;;;;16.12;6.60;;;;;;;1.08;75.01;98858.55;1632768;87;21097;-81
2022/02/21 03:58:11;;;;;;;16.52;5.90;;;;;;;1.09;76.38;98854.28;1651641;87;21005;-79
2022/02/21 04:00:39;;;;;;;13.58;5.58;;;;;;;1.08;75.45;98851.30;1650800;87;21013;-80
2022/02/21 04:03:06;;;;;;;20.68;7.78;;;;;;;1.07;74.77;98848.29;1650539;86;21048;-81
2022/02/21 04:05:32;;;;;;;11.28;5.87;;;;;;;1.04;73.10;98845.72;1650797;86;20976;-81
2022/02/21 04:07:59;;;;;;;16.07;5.12;;;;;;;0.95;73.98;98838.80;1651068;87;21043;-82
2022/02/21 04:10:25;;;;;;;15.50;5.58;;;;;;;0.82;75.15;98831.44;1650935;86;21049;-81
2022/02/21 04:12:52;;;;;;;14.80;4.75;;;;;;;0.77;74.29;98831.80;1651225;86;21010;-81
2022/02/21 04:15:18;;;;;;;10.43;5.20;;;;;;;0.70;75.35;98830.03;1655999;85;21072;-81
2022/02/21 04:17:50;;;;;;;14.00;5.10;;;;;;;0.63;77.62;98825.69;1658168;85;21373;-81
2022/02/21 04:20:20;;;;;;;10.13;5.70;;;;;;;0.60;76.10;98825.24;1656757;85;21032;-79
2022/02/21 04:22:48;;;;;;;17.30;5.35;;;;;;;0.55;77.14;98820.05;1673377;85;21083;-79
2022/02/21 04:25:15;;;;;;;10.63;4.87;;;;;;;0.53;77.22;98808.95;1664193;85;21009;-79
2022/02/21 04:27:52;;;;;;;17.02;5.78;;;;;;;0.51;75.51;98802.96;1656915;87;21049;-80
2022/02/21 04:30:22;;;;;;;13.62;6.12;;;;;;;0.46;76.58;98803.35;1659384;85;21044;-79
2022/02/21 04:32:50;;;;;;;19.42;6.10;;;;;;;0.38;78.45;98805.83;1664459;85;21055;-79
2022/02/21 04:35:20;;;;;;;15.60;6.15;;;;;;;0.37;77.24;98801.53;1656885;85;21009;-78
2022/02/21 04:37:47;;;;;;;19.52;8.18;;;;;;;0.33;77.89;98793.82;1667022;85;21555;-80
2022/02/21 04:40:19;;;;;;;14.93;7.17;;;;;;;0.29;78.84;98788.23;1684839;85;21508;-80
2022/02/21 04:42:48;;;;;;;12.75;6.30;;;;;;;0.27;78.55;98783.53;1638263;87;21591;-80
2022/02/21 04:45:15;;;;;;;15.32;6.62;;;;;;;0.27;77.56;98784.80;1642328;87;21064;-81
2022/02/21 04:47:41;;;;;;;15.10;7.05;;;;;;;0.25;76.92;98778.82;1675983;85;21072;-80
2022/02/21 04:50:09;;;;;;;13.45;6.55;;;;;;;0.22;77.33;98782.61;1652381;85;21093;-79
2022/02/21 04:52:37;;;;;;;19.95;7.33;;;;;;;0.22;77.87;98777.49;1658722;85;21607;-80
2022/02/21 04:55:06;;;;;;;15.48;7.28;;;;;;;0.21;78.65;98783.03;1658820;85;21055;-82
2022/02/21 04:57:33;;;;;;;15.08;6.42;;;;;;;0.20;78.56;98780.06;1673580;85;21027;-79
2022/02/21 05:00:00;;;;;;;17.23;8.58;;;;;;;0.19;78.64;98780.45;1678850;85;21031;-79
2022/02/21 05:02:27;;;;;;;17.77;7.50;;;;;;;0.21;77.87;98780.91;1671799;85;21522;-79
2022/02/21 05:04:53;;;;;;;19.17;7.50;;;;;;;0.18;78.83;98771.08;1662229;85;21088;-80
2022/02/21 05:07:20;;;;;;;16.62;6.97;;;;;;;0.16;78.88;98757.83;1657404;87;21060;-80
2022/02/21 05:09:46;;;;;;;16.75;7.70;;;;;;;0.14;78.07;98751.44;1657074;85;21088;-80
2022/02/21 05:12:13;;;;;;;14.35;6.58;;;;;;;0.10;77.27;98746.25;1656730;85;21522;-79
2022/02/21 05:14:39;;;;;;;15.83;7.30;;;;;;;0.07;79.08;98754.75;1674268;85;20996;-80
2022/02/21 05:17:06;;;;;;;21.30;7.85;;;;;;;0.04;79.63;98741.08;1657911;85;21015;-80
2022/02/21 05:19:34;;;;;;;17.02;8.08;;;;;;;0.03;78.18;98740.23;1656801;85;21104;-79
2022/02/21 05:22:00;;;;;;;24.57;8.68;;;;;;;-0.03;78.96;98742.28;1676447;85;21065;-80
2022/02/21 05:24:27;;;;;;;21.80;8.10;;;;;;;-0.05;79.77;98737.58;1670093;85;21305;-79
2022/02/21 05:26:54;;;;;;;21.10;7.65;;;;;;;-0.06;79.18;98746.50;1663126;85;21008;-79
2022/02/21 05:29:21;;;;;;;21.65;7.60;;;;;;;-0.10;79.73;98730.70;1657059;87;21381;-80
2022/02/21 05:31:48;;;;;;;19.37;8.85;;;;;;;-0.12;79.70;98734.53;1657284;85;21032;-79
2022/02/21 05:34:14;;;;;;;18.98;7.92;;;;;;;-0.12;78.71;98728.55;1651944;86;21029;-80
2022/02/21 05:36:41;;;;;;;15.05;7.47;;;;;;;-0.15;79.70;98730.65;1656954;87;21679;-80
2022/02/21 05:39:07;;;;;;;21.30;8.13;;;;;;;-0.16;79.42;98725.12;1662776;85;21023;-80
2022/02/21 05:41:34;;;;;;;19.17;7.08;;;;;;;-0.17;80.11;98727.22;1681892;85;21015;-80
2022/02/21 05:44:01;;;;;;;18.07;8.20;;;;;;;-0.16;79.41;98722.95;1661854;85;21084;-80
2022/02/21 05:46:28;;;;;;;24.65;9.08;;;;;;;-0.17;79.48;98728.50;1657304;87;21076;-79
2022/02/21 05:48:54;;;;;;;15.80;8.13;;;;;;;-0.18;79.17;98716.97;1656903;87;21069;-80
2022/02/21 05:51:21;;;;;;;20.77;8.08;;;;;;;-0.23;80.63;98719.05;1660878;85;21023;-79
2022/02/21 05:53:48;;;;;;;24.50;9.00;;;;;;;-0.22;79.45;98716.07;1671810;85;21114;-80
2022/02/21 05:56:15;;;;;;;21.97;9.30;;;;;;;-0.22;79.10;98716.95;1659441;85;21046;-80
2022/02/21 05:58:42;;;;;;;18.55;8.33;;;;;;;-0.26;79.88;98715.20;1667520;85;21012;-79
2022/02/21 06:01:09;;;;;;;21.48;9.30;;;;;;;-0.25;79.80;98714.34;1685831;85;21027;-80
2022/02/21 06:03:35;;;;;;;19.75;8.68;;;;;;;-0.18;78.57;98708.03;1660522;85;21500;-81
2022/02/21 06:06:03;;;;;;;22.50;8.88;;;;;;;-0.22;79.85;98702.91;1659939;85;21029;-80
2022/02/21 06:08:30;;;;;;;21.10;8.73;;;;;;;-0.17;79.61;98695.70;1682957;85;21059;-80
2022/02/21 06:10:57;;;;;;;19.15;7.92;;;;;;;-0.14;80.08;98696.61;1674072;85;21372;-82
2022/02/21 06:13:23;;;;;;;21.10;8.50;;;;;;;-0.10;79.59;98689.41;1681478;85;21031;-82
2022/02/21 06:15:50;;;;;;;19.32;8.80;;;;;;;-0.06;81.00;98683.89;1661796;85;21624;-83
2022/02/21 06:18:17;;;;;;;18.25;8.53;;;;;;;0.00;79.64;98689.09;1682572;85;21040;-83
2022/02/21 06:20:43;;;;;;;23.30;8.55;;;;;;;0.06;79.72;98687.00;1679440;85;21024;-82
2022/02/21 06:23:10;;;;;;;23.32;7.97;;;;;;;0.14;79.75;98683.70;1659159;87;21051;-82
2022/02/21 06:25:38;;;;;;;22.32;8.50;;;;;;;0.24;80.33;98676.09;1678701;85;21066;-82
2022/02/21 06:28:05;;;;;;;20.57;7.47;;;;;;;0.29;80.32;98679.14;1659329;85;21081;-83
2022/02/21 06:30:32;;;;;;;18.98;7.60;;;;;;;0.36;79.22;98673.25;1658306;85;20946;-82
2022/02/21 06:32:58;;;;;;;18.10;9.33;;;;;;;0.48;79.17;98675.45;1636372;87;21024;-82
2022/02/21 06:35:24;;;;;;;19.82;9.70;;;;;;;0.59;79.26;98677.27;1659447;85;20976;-83
2022/02/21 06:37:54;;;;;;;23.77;10.25;;;;;;;0.71;79.95;98670.11;1659762;85;20994;-83
2022/02/21 06:40:20;;;;;;;24.70;11.10;;;;;;;0.81;78.89;98672.31;1659761;85;21106;-83
2022/02/21 06:42:48;;;;;;;30.20;11.68;;;;;;;0.90;78.17;98668.55;1659805;85;21024;-82
2022/02/21 06:45:15;;;;;;;14.87;7.87;;;;;;;0.97;79.12;98666.87;1659576;85;20980;-83
2022/02/21 06:47:42;;;;;;;15.65;7.55;;;;;;;1.06;79.13;98666.95;1659180;87;20989;-82
2022/02/21 06:50:09;;;;;;;16.20;7.05;;;;;;;1.12;78.52;98656.74;1658855;85;21048;-82
2022/02/21 06:52:36;;;;;;;18.17;7.72;;;;;;;1.19;78.65;98653.78;1656612;87;21078;-80
2022/02/21 06:55:04;;;;;;;16.60;7.67;;;;;;;1.26;77.81;98650.84;1658479;85;21047;-79
2022/02/21 06:57:32;;;;;;;23.83;8.43;;;;;;;1.32;77.57;98637.64;1655888;85;21072;-78
2022/02/21 06:59:59;;;;;;;18.85;8.40;;;;;;;1.42;78.30;98635.13;1657360;85;21044;-77
2022/02/21 07:02:25;;;;;;;21.17;9.40;;;;;;;1.50;77.26;98625.33;1663012;85;21048;-78
2022/02/21 07:04:52;;;;;;;23.18;9.45;;;;;;;1.59;77.22;98623.22;1657880;85;21597;-79
2022/02/21 07:07:19;;;;;;;20.45;10.03;;;;;;;1.66;77.28;98627.52;1658951;85;21555;-80
2022/02/21 07:09:45;;;;;;;25.62;9.70;;;;;;;1.79;76.98;98620.70;1656080;85;21076;-80
2022/02/21 07:12:12;;;;;;;19.27;7.55;;;;;;;1.85;76.79;98614.75;1632751;86;21130;-79
2022/02/21 07:14:38;;;;;;;22.37;7.60;;;;;;;1.92;76.37;98608.36;1654444;85;21540;-79
2022/02/21 07:17:05;;;;;;;18.30;7.40;;;;;;;2.01;76.05;98602.41;1626180;88;21127;-79
2022/02/21 07:19:31;;;;;;;19.77;7.47;;;;;;;2.08;75.87;98602.83;1651113;87;21068;-80
2022/02/21 07:21:59;;;;;;;16.00;7.50;;;;;;;2.14;75.77;98594.28;1656253;86;21029;-79
2022/02/21 07:24:25;;;;;;;26.37;8.95;;;;;;;2.20;76.03;98598.14;1651955;86;21004;-78
2022/02/21 07:26:52;;;;;;;20.35;6.53;;;;;;;2.26;77.36;98590.44;1656633;86;21540;-79
2022/02/21 07:29:18;;;;;;;11.38;6.12;;;;;;;2.32;77.64;98592.16;1650096;87;21017;-78
2022/02/21 07:31:45;;;;;;;14.60;6.25;;;;;;;2.42;75.78;98590.01;1626680;87;21067;-79
2022/02/21 07:34:11;;;;;;;13.85;6.22;;;;;;;2.46;76.30;98585.73;1650568;87;21036;-77
2022/02/21 07:36:38;;;;;;;14.15;5.80;;;;;;;2.51;75.31;98574.63;1649798;87;21572;-77
2022/02/21 07:39:05;;;;;;;12.30;6.20;;;;;;;2.56;75.60;98569.47;1621533;87;21555;-79
2022/02/21 07:41:32;;;;;;;18.25;6.00;;;;;;;2.62;75.30;98567.33;1650466;87;21077;-78
2022/02/21 07:43:59;;;;;;;12.00;5.22;;;;;;;2.65;75.00;98566.05;1661295;86;21066;-78
2022/02/21 07:46:26;;;;;;;11.85;5.67;;;;;;;2.74;75.00;98568.59;1654998;85;21057;-78
2022/02/21 07:48:53;;;;;;;17.15;6.30;;;;;;;2.79;75.66;98572.02;1649200;86;21076;-81
2022/02/21 07:51:19;;;;;;;13.32;6.03;;;;;;;2.89;75.46;98563.42;1657033;86;21133;-79
2022/02/21 07:53:46;;;;;;;15.55;7.62;;;;;;;2.96;75.48;98558.70;1657946;86;21056;-81
2022/02/21 07:56:12;;;;;;;13.60;6.42;;;;;;;3.04;75.54;98547.53;1648826;87;21119;-81
2022/02/21 07:58:38;;;;;;;12.20;6.30;;;;;;;3.16;75.30;98548.36;1658876;86;20982;-79
2022/02/21 08:01:05;;;;;;;12.43;6.17;;;;;;;3.29;74.85;98540.16;1644495;85;21564;-80
2022/02/21 08:03:34;;;;;;;12.23;5.95;;;;;;;3.40;74.46;98529.81;1654943;85;21044;-81
2022/02/21 08:06:00;;;;;;;13.35;6.42;;;;;;;3.49;74.01;98526.35;1652371;86;21074;-80
2022/02/21 08:08:28;;;;;;;11.95;5.62;;;;;;;3.58;73.70;98513.42;1641588;85;21077;-79
2022/02/21 08:10:54;;;;;;;13.18;5.70;;;;;;;3.66;73.21;98505.27;1649103;85;21069;-79
2022/02/21 08:13:21;;;;;;;9.48;5.05;;;;;;;3.73;73.11;98496.62;1648808;85;21199;-80
2022/02/21 08:15:47;;;;;;;12.70;6.28;;;;;;;3.83;72.76;98488.85;1656498;85;21134;-80
2022/02/21 08:18:14;;;;;;;14.70;6.15;;;;;;;3.88;72.85;98488.37;1653554;85;21041;-80
2022/02/21 08:20:40;;;;;;;17.90;5.90;;;;;;;3.96;72.46;98481.03;1651148;85;21048;-80
2022/02/21 08:23:07;;;;;;;10.10;5.60;;;;;;;4.03;72.67;98471.97;1647502;85;21587;-78
2022/02/21 08:25:35;;;;;;;11.97;6.12;;;;;;;4.14;72.18;98464.58;1654475;85;21114;-80
2022/02/21 08:28:03;;;;;;;12.58;5.20;;;;;;;4.26;71.97;98454.61;1645419;85;21571;-78
2022/02/21 08:30:29;;;;;;;11.53;4.97;;;;;;;4.36;71.80;98449.78;1645357;85;21035;-79
2022/02/21 08:32:56;;;;;;;12.98;5.12;;;;;;;4.51;71.55;98443.59;1646021;85;21088;-81
2022/02/21 08:35:24;;;;;;;19.10;5.00;;;;;;;4.66;71.63;98436.15;1650281;85;21060;-80
2022/02/21 08:37:50;;;;;;;13.80;5.45;;;;;;;4.81;71.37;98424.80;1656941;85;21065;-82
2022/02/21 08:40:18;;;;;;;10.78;4.28;;;;;;;4.94;69.58;98421.20;1653203;85;21630;-80
2022/02/21 08:42:45;;;;;;;11.40;3.47;;;;;;;5.10;67.82;98416.69;1653352;85;21044;-81
2022/02/21 08:45:13;;;;;;;10.82;4.20;;;;;;;5.25;68.59;98415.64;1655701;85;21068;-81
2022/02/21 08:47:40;;;;;;;9.43;5.25;;;;;;;5.40;67.78;98413.70;1658923;85;21035;-79
2022/02/21 08:50:10;;;;;;;13.50;4.53;;;;;;;5.52;67.12;98410.93;1655512;85;21115;-80
2022/02/21 08:52:40;;;;;;;15.70;4.55;;;;;;;5.61;67.07;98413.38;1652172;85;20977;-79
2022/02/21 08:55:15;;;;;;;10.38;4.17;;;;;;;5.73;66.12;98400.27;1663628;85;21388;-78
2022/02/21 08:57:42;;;;;;;10.32;4.28;;;;;;;5.82;65.89;98397.96;1633707;86;21044;-78
2022/02/21 09:00:10;;;;;;;12.10;4.70;;;;;;;5.94;66.09;98383.55;1651977;85;21106;-78
2022/02/21 09:02:37;;;;;;;7.60;4.12;;;;;;;6.03;64.91;98378.72;1651037;85;21080;-77
2022/02/21 09:05:05;;;;;;;8.63;4.75;;;;;;;6.15;64.78;98369.45;1647373;85;21035;-78
2022/02/21 09:07:32;;;;;;;10.75;4.67;;;;;;;6.24;64.90;98361.13;1651888;85;21559;-77
2022/02/21 09:09:59;;;;;;;10.13;5.10;;;;;;;6.29;63.95;98358.86;1649572;85;21175;-79
2022/02/21 09:12:26;;;;;;;16.90;6.30;;;;;;;6.37;64.45;98351.81;1646581;85;21044;-78
2022/02/21 09:14:56;;;;;;;14.50;5.58;;;;;;;6.44;64.28;98351.69;1654864;85;21161;-79
2022/02/21 09:17:21;;;;;;;13.80;6.28;;;;;;;6.48;63.77;98351.59;1650711;85;21183;-79
2022/02/21 09:19:47;;;;;;;9.48;4.67;;;;;;;6.49;62.86;98352.02;1635804;85;21088;-78
2022/02/21 09:22:14;;;;;;;18.50;6.30;;;;;;;6.50;63.19;98338.65;1658662;85;21632;-79
2022/02/21 09:24:40;;;;;;;11.88;6.42;;;;;;;6.51;63.08;98341.20;1656334;85;22497;-78
2022/02/21 09:27:07;;;;;;;14.80;5.85;;;;;;;6.58;62.90;98330.30;1630817;87;21030;-78
2022/02/21 09:29:35;;;;;;;12.15;5.60;;;;;;;6.62;62.94;98322.05;1650818;85;21033;-78
2022/02/21 09:32:02;;;;;;;13.05;5.97;;;;;;;6.66;62.12;98314.19;1652916;85;21112;-76
2022/02/21 09:34:28;;;;;;;11.85;5.92;;;;;;;6.73;62.74;98298.14;1652827;85;21090;-78
2022/02/21 09:36:55;;;;;;;14.87;5.40;;;;;;;6.86;62.74;98303.86;1646714;85;21071;-80
2022/02/21 09:39:21;;;;;;;10.53;5.37;;;;;;;6.93;62.46;98298.52;1650814;85;21417;-79
2022/02/21 09:41:49;;;;;;;12.58;5.75;;;;;;;7.02;61.65;98300.48;1647270;85;21096;-78
2022/02/21 09:44:17;;;;;;;11.25;5.33;;;;;;;7.12;61.21;98289.03;1646889;85;21123;-78
2022/02/21 09:46:48;;;;;;;11.63;5.58;;;;;;;7.25;61.82;98281.84;1653397;85;21097;-80
2022/02/21 09:49:19;;;;;;;13.45;4.90;;;;;;;7.31;61.18;98264.44;1649444;85;21108;-79
2022/02/21 09:51:46;;;;;;;14.75;6.37;;;;;;;7.51;61.19;98279.89;1653353;85;21054;-79
2022/02/21 09:54:14;;;;;;;13.08;4.83;;;;;;;7.65;60.78;98264.02;1646921;85;21048;-84
2022/02/21 09:56:42;;;;;;;11.40;4.83;;;;;;;7.76;58.19;98258.12;1655104;85;21032;-78
2022/02/21 09:59:11;;;;;;;9.73;4.90;;;;;;;7.89;59.99;98264.63;1647556;85;21056;-79
2022/02/21 10:01:38;;;;;;;11.30;5.45;;;;;;;8.06;59.31;98251.69;1649271;85;21167;-77
2022/02/21 10:04:05;;;;;;;12.78;5.15;;;;;;;8.16;58.82;98241.02;1655613;85;21303;-80
2022/02/21 10:06:32;;;;;;;14.50;4.90;;;;;;;8.31;56.43;98241.00;1645185;85;21090;-77
2022/02/21 10:09:10;;;;;;;11.57;5.05;;;;;;;8.46;57.80;98233.27;1645909;85;21492;-77
2022/02/21 10:11:45;;;;;;;15.68;6.33;;;;;;;8.63;55.88;98217.64;1636721;85;21041;-78
2022/02/21 10:14:24;;;;;;;10.28;5.12;;;;;;;8.80;55.60;98217.97;1653059;85;21495;-78
2022/02/21 10:16:58;;;;;;;14.38;5.47;;;;;;;8.96;55.11;98213.97;1661881;85;21382;-82
2022/02/21 10:19:36;;;;;;;15.78;5.97;;;;;;;9.15;54.36;98211.63;1656330;85;21135;-79
2022/02/21 10:22:10;;;;;;;11.65;5.10;;;;;;;9.32;53.77;98217.53;1647425;85;22490;-79
2022/02/21 10:24:49;;;;;;;12.25;5.08;;;;;;;9.51;55.06;98211.70;1655172;85;21139;-78
2022/02/21 10:27:20;;;;;;;14.75;5.12;;;;;;;9.66;55.12;98204.69;1652765;85;21035;-79
2022/02/21 10:29:53;;;;;;;14.15;5.17;;;;;;;9.85;52.00;98206.19;1646858;85;21076;-79
2022/02/21 10:32:24;;;;;;;12.95;5.08;;;;;;;9.93;52.44;98196.36;1643279;85;21527;-79
2022/02/21 10:34:53;;;;;;;7.90;4.35;;;;;;;10.14;52.58;98189.96;1640923;85;21088;-79
2022/02/21 10:37:25;;;;;;;10.03;4.87;;;;;;;10.27;53.34;98176.07;1645002;85;21045;-78
2022/02/21 10:40:12;;;;;;;15.75;4.75;;;;;;;10.46;53.28;98175.76;1651413;85;21088;-78
2022/02/21 10:42:39;;;;;;;7.53;3.60;;;;;;;10.64;52.19;98168.98;1646041;85;21033;-78
2022/02/21 10:45:13;;;;;;;12.90;4.72;;;;;;;10.78;49.93;98156.73;1653329;85;21035;-78
2022/02/21 10:48:03;;;;;;;7.75;3.92;;;;;;;10.95;52.89;98154.28;1644796;85;21062;-78
2022/02/21 10:50:34;;;;;;;7.67;4.28;;;;;;;11.10;48.94;98141.11;1646808;85;21107;-79
2022/02/21 10:53:12;;;;;;;10.60;4.25;;;;;;;11.27;49.22;98131.73;1658148;85;21000;-79
2022/02/21 10:55:40;;;;;;;8.70;3.80;;;;;;;11.48;49.92;98131.23;1649404;85;22207;-78
2022/02/21 10:58:23;;;;;;;7.53;3.67;;;;;;;11.78;49.87;98121.66;1631813;86;21151;-79
2022/02/21 11:00:50;;;;;;;10.95;3.87;;;;;;;11.96;46.89;98116.97;1631732;86;22203;-78
2022/02/21 11:03:23;;;;;;;9.33;4.12;;;;;;;12.12;48.81;98114.48;1657979;85;21051;-81
2022/02/21 11:05:52;;;;;;;9.45;4.45;;;;;;;12.25;47.22;98111.67;1661895;85;21499;-80
2022/02/21 11:08:21;;;;;;;7.95;4.00;;;;;;;12.34;45.78;98111.70;1659809;85;21571;-79
2022/02/21 11:10:52;;;;;;;10.40;4.22;;;;;;;12.45;48.21;98109.41;1657900;85;21043;-79
2022/02/21 11:13:21;;;;;;;8.08;4.10;;;;;;;12.52;44.04;98103.45;1649562;85;21508;-80
2022/02/21 11:15:52;;;;;;;10.78;4.47;;;;;;;12.53;46.16;98087.74;1657105;85;21082;-79
2022/02/21 11:18:20;;;;;;;8.08;4.20;;;;;;;12.73;46.46;98093.71;1629436;87;21060;-80
2022/02/21 11:20:47;;;;;;;12.63;4.37;;;;;;;12.78;44.33;98097.41;1623792;87;21572;-79
2022/02/21 11:23:14;;;;;;;14.83;5.70;;;;;;;12.88;46.49;98083.83;1626065;87;21027;-76
2022/02/21 11:26:05;;;;;;;10.45;5.35;;;;;;;13.01;45.47;98084.50;1626824;86;21047;-76
2022/02/21 11:28:54;;;;;;;10.25;4.42;;;;;;;13.08;45.58;98081.97;1603416;88;21083;-76
2022/02/21 11:31:31;;;;;;;11.45;3.67;;;;;;;13.15;44.52;98080.74;1626124;87;21112;-76
2022/02/21 11:34:02;;;;;;;13.30;3.33;;;;;;;13.27;44.39;98070.09;1627764;87;21068;-76